createdAt,value
2023-03-01T00:01:37.191Z,97298.98
2023-03-01T00:04:05.307Z,97294.08
2023-03-01T00:06:33.619Z,97292.72
2023-03-01T00:09:01.751Z,97295.76
2023-03-01T00:11:31.566Z,97293.80
2023-03-01T00:14:03.393Z,97290.88
2023-03-01T00:16:42.138Z,97290.32
2023-03-01T00:19:16.587Z,97288.41
2023-03-01T00:21:44.944Z,97286.98
2023-03-01T00:24:13.533Z,97289.96
2023-03-01T00:26:59.494Z,97289.95
2023-03-01T00:29:28.973Z,97282.96
2023-03-01T00:31:56.939Z,97285.94
2023-03-01T00:34:24.992Z,97280.46
2023-03-01T00:36:52.974Z,97278.30
2023-03-01T00:39:20.931Z,97271.07
2023-03-01T00:41:49.221Z,97263.73
2023-03-01T00:44:17.194Z,97267.48
2023-03-01T00:46:45.232Z,97262.89
2023-03-01T00:49:13.346Z,97258.80
2023-03-01T00:51:42.494Z,97255.52
2023-03-01T00:54:10.633Z,97254.02
2023-03-01T00:56:38.731Z,97254.39
2023-03-01T00:59:06.705Z,97262.46
2023-03-01T01:01:34.745Z,97261.33
2023-03-01T01:04:05.707Z,97258.72
2023-03-01T01:06:40.512Z,97258.59
2023-03-01T01:09:08.914Z,97261.34
2023-03-01T01:11:40.286Z,97259.47
2023-03-01T01:14:08.314Z,97256.69
2023-03-01T01:16:36.267Z,97258.76
2023-03-01T01:19:05.337Z,97253.94
2023-03-01T01:21:33.569Z,97251.79
2023-03-01T01:24:01.483Z,97246.71
2023-03-01T01:26:31.890Z,97239.77
2023-03-01T01:29:01.507Z,97239.45
2023-03-01T01:31:30.766Z,97237.87
2023-03-01T01:34:00.601Z,97223.71
2023-03-01T01:36:29.551Z,97224.53
2023-03-01T01:38:57.964Z,97230.89
2023-03-01T01:41:28.364Z,97235.16
2023-03-01T01:44:27.966Z,97227.63
2023-03-01T01:47:02.177Z,97227.83
2023-03-01T01:49:43.936Z,97233.43
2023-03-01T01:52:23.680Z,97231.40
2023-03-01T01:54:54.902Z,97220.91
2023-03-01T01:57:27.800Z,97220.48
2023-03-01T02:00:00.312Z,97214.45
2023-03-01T02:02:28.521Z,97211.33
2023-03-01T02:05:11.594Z,97219.12
2023-03-01T02:07:40.983Z,97217.99
2023-03-01T02:10:09.880Z,97219.41
2023-03-01T02:12:42.818Z,97214.77
2023-03-01T02:15:13.483Z,97211.86
2023-03-01T02:17:42.130Z,97214.78
2023-03-01T02:20:32.184Z,97215.86
2023-03-01T02:23:01.551Z,97221.74
2023-03-01T02:25:41.813Z,97225.55
2023-03-01T02:28:21.112Z,97227.80
2023-03-01T02:31:20.182Z,97230.05
2023-03-01T02:33:49.828Z,97232.33
2023-03-01T02:36:31.880Z,97226.77
2023-03-01T02:39:02.613Z,97226.23
2023-03-01T02:41:36.497Z,97227.97
2023-03-01T02:44:05.514Z,97227.09
2023-03-01T02:46:33.989Z,97229.19
2023-03-01T02:49:02.117Z,97229.52
2023-03-01T02:51:48.611Z,97224.20
2023-03-01T02:54:37.697Z,97227.66
2023-03-01T02:57:06.949Z,97222.54
2023-03-01T02:59:40.487Z,97221.05
2023-03-01T03:02:37.182Z,97214.72
2023-03-01T03:05:32.440Z,97217.26
2023-03-01T03:08:03.317Z,97214.45
2023-03-01T03:10:38.978Z,97211.12
2023-03-01T03:13:12.591Z,97209.42
2023-03-01T03:15:41.600Z,97208.58
2023-03-01T03:18:13.674Z,97205.61
2023-03-01T03:20:43.936Z,97209.26
2023-03-01T03:23:12.711Z,97211.87
2023-03-01T03:25:40.767Z,97205.77
2023-03-01T03:28:11.701Z,97197.76
2023-03-01T03:30:41.764Z,97201.00
2023-03-01T03:33:13.485Z,97200.35
2023-03-01T03:35:47.152Z,97202.08
2023-03-01T03:38:17.746Z,97204.51
2023-03-01T03:41:09.383Z,97202.17
2023-03-01T03:43:38.989Z,97202.34
2023-03-01T03:46:08.129Z,97204.08
2023-03-01T03:48:38.888Z,97206.61
2023-03-01T03:51:07.841Z,97207.95
2023-03-01T03:53:38.339Z,97207.80
2023-03-01T03:56:06.939Z,97205.63
2023-03-01T03:58:35.271Z,97203.39
2023-03-01T04:01:03.804Z,97205.39
2023-03-01T04:03:33.140Z,97204.80
2023-03-01T04:06:02.169Z,97202.38
2023-03-01T04:08:30.235Z,97206.39
2023-03-01T04:11:23.425Z,97210.85
2023-03-01T04:13:53.971Z,97211.88
2023-03-01T04:16:25.977Z,97210.38
2023-03-01T04:18:54.556Z,97209.73
2023-03-01T04:21:23.248Z,97212.20
2023-03-01T04:23:53.710Z,97213.83
2023-03-01T04:26:21.846Z,97209.55
2023-03-01T04:28:51.478Z,97211.39
2023-03-01T04:31:22.414Z,97211.27
2023-03-01T04:33:56.196Z,97205.51
2023-03-01T04:36:27.524Z,97197.69
2023-03-01T04:38:56.695Z,97193.96
2023-03-01T04:41:26.306Z,97194.55
2023-03-01T04:43:54.574Z,97190.40
2023-03-01T04:46:23.191Z,97189.44
2023-03-01T04:48:51.336Z,97179.79
2023-03-01T04:51:19.550Z,97176.52
2023-03-01T04:53:47.807Z,97178.76
2023-03-01T04:56:16.494Z,97182.20
2023-03-01T04:58:45.187Z,97183.70
2023-03-01T05:01:17.192Z,97193.14
2023-03-01T05:03:46.668Z,97189.55
2023-03-01T05:06:15.502Z,97187.45
2023-03-01T05:08:44.179Z,97186.45
2023-03-01T05:11:13.288Z,97182.24
2023-03-01T05:13:41.852Z,97185.54
2023-03-01T05:16:13.590Z,97183.69
2023-03-01T05:18:43.297Z,97183.45
2023-03-01T05:21:14.079Z,97179.15
2023-03-01T05:23:42.199Z,97182.86
2023-03-01T05:26:25.889Z,97184.34
2023-03-01T05:28:59.977Z,97189.61
2023-03-01T05:31:29.672Z,97190.64
2023-03-01T05:33:57.839Z,97195.41
2023-03-01T05:36:25.908Z,97193.46
2023-03-01T05:38:53.883Z,97192.10
2023-03-01T05:41:22.026Z,97193.13
2023-03-01T05:43:50.087Z,97194.04
2023-03-01T05:46:18.064Z,97191.23
2023-03-01T05:48:46.029Z,97192.34
2023-03-01T05:51:13.957Z,97193.36
2023-03-01T05:53:41.932Z,97194.46
2023-03-01T05:56:09.920Z,97191.45
2023-03-01T05:58:39.742Z,97189.77
2023-03-01T06:01:13.714Z,97193.75
2023-03-01T06:03:41.705Z,97197.10
2023-03-01T06:06:09.704Z,97197.88
2023-03-01T06:08:37.647Z,97197.77
2023-03-01T06:11:06.283Z,97199.36
2023-03-01T06:13:34.654Z,97192.33
2023-03-01T06:16:06.059Z,97192.75
2023-03-01T06:18:34.253Z,97192.98
2023-03-01T06:21:02.188Z,97193.14
2023-03-01T06:23:30.303Z,97194.37
2023-03-01T06:25:58.266Z,97198.69
2023-03-01T06:28:47.170Z,97194.48
2023-03-01T06:31:15.271Z,97197.63
2023-03-01T06:33:43.359Z,97190.21
2023-03-01T06:36:11.482Z,97187.50
2023-03-01T06:38:41.805Z,97185.13
2023-03-01T06:41:09.906Z,97185.34
2023-03-01T06:43:37.940Z,97187.99
2023-03-01T06:46:08.041Z,97188.63
2023-03-01T06:48:36.474Z,97181.98
2023-03-01T06:51:04.548Z,97184.32
2023-03-01T06:53:32.510Z,97180.02
2023-03-01T06:56:03.565Z,97179.36
2023-03-01T06:58:31.563Z,97177.91
2023-03-01T07:00:59.598Z,97172.38
2023-03-01T07:03:27.570Z,97168.85
2023-03-01T07:05:55.671Z,97166.02
2023-03-01T07:08:23.649Z,97164.40
2023-03-01T07:10:58.918Z,97162.90
2023-03-01T07:13:27.683Z,97156.05
2023-03-01T07:15:55.826Z,97153.76
2023-03-01T07:18:25.308Z,97152.95
2023-03-01T07:20:54.162Z,97151.23
2023-03-01T07:23:22.326Z,97149.02
2023-03-01T07:25:54.662Z,97147.64
2023-03-01T07:28:26.091Z,97147.38
2023-03-01T07:30:54.368Z,97143.80
2023-03-01T07:33:22.488Z,97146.81
2023-03-01T07:35:58.011Z,97154.02
2023-03-01T07:38:26.951Z,97155.00
2023-03-01T07:41:00.212Z,97160.80
2023-03-01T07:43:29.589Z,97159.98
2023-03-01T07:46:01.966Z,97160.95
2023-03-01T07:48:31.807Z,97161.38
2023-03-01T07:51:05.438Z,97166.23
2023-03-01T07:53:35.159Z,97169.02
2023-03-01T07:56:13.999Z,97162.73
2023-03-01T07:58:43.621Z,97162.42
2023-03-01T08:01:21.067Z,97159.25
2023-03-01T08:03:49.489Z,97156.35
2023-03-01T08:06:18.776Z,97155.86
2023-03-01T08:08:47.113Z,97153.35
2023-03-01T08:11:16.681Z,97151.27
2023-03-01T08:13:45.114Z,97144.60
2023-03-01T08:16:15.696Z,97144.61
2023-03-01T08:18:44.562Z,97142.94
2023-03-01T08:21:16.515Z,97144.52
2023-03-01T08:23:45.751Z,97143.73
2023-03-01T08:26:20.150Z,97140.10
2023-03-01T08:28:50.192Z,97140.54
2023-03-01T08:31:21.913Z,97137.86
2023-03-01T08:33:56.561Z,97129.64
2023-03-01T08:36:27.142Z,97134.06
2023-03-01T08:38:56.083Z,97134.58
2023-03-01T08:41:24.608Z,97139.73
2023-03-01T08:43:53.961Z,97137.44
2023-03-01T08:46:22.043Z,97136.84
2023-03-01T08:48:49.976Z,97136.91
2023-03-01T08:51:20.634Z,97136.03
2023-03-01T08:53:51.543Z,97132.65
2023-03-01T08:56:20.547Z,97133.23
2023-03-01T08:58:49.750Z,97133.28
2023-03-01T09:01:20.038Z,97131.14
2023-03-01T09:03:48.470Z,97133.77
2023-03-01T09:06:17.895Z,97132.04
2023-03-01T09:08:49.137Z,97124.84
2023-03-01T09:11:22.549Z,97125.52
2023-03-01T09:13:51.475Z,97121.64
2023-03-01T09:16:22.041Z,97118.02
2023-03-01T09:18:52.888Z,97116.22
2023-03-01T09:21:37.603Z,97117.86
2023-03-01T09:24:14.857Z,97111.92
2023-03-01T09:26:44.025Z,97112.58
2023-03-01T09:29:12.042Z,97109.75
2023-03-01T09:31:40.000Z,97109.94
2023-03-01T09:34:08.912Z,97115.82
2023-03-01T09:36:37.854Z,97121.23
2023-03-01T09:39:09.522Z,97120.95
2023-03-01T09:41:38.069Z,97118.70
2023-03-01T09:44:38.096Z,97123.53
2023-03-01T09:47:10.943Z,97122.34
2023-03-01T09:49:43.239Z,97122.58
2023-03-01T09:52:49.932Z,97115.72
2023-03-01T09:55:33.054Z,97122.90
2023-03-01T09:58:38.261Z,97122.56
2023-03-01T10:01:33.898Z,97127.21
2023-03-01T10:04:20.519Z,97126.92
2023-03-01T10:07:07.120Z,97124.09
2023-03-01T10:09:38.548Z,97121.95
2023-03-01T10:12:13.766Z,97115.27
2023-03-01T10:15:06.099Z,97115.27
2023-03-01T10:17:52.493Z,97110.40
2023-03-01T10:20:26.588Z,97110.69
2023-03-01T10:22:56.512Z,97109.34
2023-03-01T10:26:05.452Z,97112.61
2023-03-01T10:29:03.560Z,97113.33
2023-03-01T10:31:40.407Z,97113.23
2023-03-01T10:34:14.920Z,97106.52
2023-03-01T10:36:44.105Z,97108.09
2023-03-01T10:39:19.145Z,97110.50
2023-03-01T10:41:57.780Z,97110.98
2023-03-01T10:44:48.934Z,97107.92
2023-03-01T10:47:17.016Z,97108.67
2023-03-01T10:49:54.470Z,97105.13
2023-03-01T10:52:25.885Z,97103.51
2023-03-01T10:55:26.478Z,97098.86
2023-03-01T10:58:22.114Z,97100.88
2023-03-01T11:01:07.220Z,97099.41
2023-03-01T11:03:38.133Z,97099.35
2023-03-01T11:06:12.126Z,97091.29
2023-03-01T11:08:46.079Z,97090.09
2023-03-01T11:11:23.418Z,97091.11
2023-03-01T11:14:25.865Z,97087.16
2023-03-01T11:17:06.165Z,97083.17
2023-03-01T11:19:34.461Z,97081.48
2023-03-01T11:22:11.791Z,97079.73
2023-03-01T11:25:08.571Z,97073.27
2023-03-01T11:27:44.654Z,97072.14
2023-03-01T11:30:22.076Z,97074.55
2023-03-01T11:33:15.307Z,97071.33
2023-03-01T11:36:08.574Z,97070.02
2023-03-01T11:38:39.056Z,97070.56
2023-03-01T11:41:18.535Z,97067.92
2023-03-01T11:43:56.906Z,97068.19
2023-03-01T11:46:37.105Z,97067.05
2023-03-01T11:49:42.498Z,97065.19
2023-03-01T11:52:16.189Z,97061.86
2023-03-01T11:54:53.461Z,97053.45
2023-03-01T11:57:22.570Z,97053.12
2023-03-01T12:00:08.495Z,97047.69
2023-03-01T12:02:45.581Z,97044.73
2023-03-01T12:06:04.670Z,97040.97
2023-03-01T12:08:39.050Z,97036.70
2023-03-01T12:11:27.117Z,97035.19
2023-03-01T12:14:34.429Z,97036.14
2023-03-01T12:17:23.024Z,97030.70
2023-03-01T12:20:28.984Z,97031.92
2023-03-01T12:23:35.572Z,97039.71
2023-03-01T12:26:37.110Z,97043.08
2023-03-01T12:29:32.361Z,97039.02
2023-03-01T12:32:12.216Z,97036.34
2023-03-01T12:35:14.527Z,97033.77
2023-03-01T12:37:51.353Z,97023.08
2023-03-01T12:40:28.935Z,97019.86
2023-03-01T12:43:23.347Z,97022.71
2023-03-01T12:46:26.623Z,97018.65
2023-03-01T12:49:00.656Z,97012.95
2023-03-01T12:51:32.780Z,97005.83
2023-03-01T12:54:07.025Z,97001.49
2023-03-01T12:56:39.381Z,96994.53
2023-03-01T12:59:42.104Z,96994.13
2023-03-01T13:02:52.285Z,96997.23
2023-03-01T13:05:30.789Z,96999.69
2023-03-01T13:08:13.986Z,97002.23
2023-03-01T13:10:51.092Z,97003.33
2023-03-01T13:13:24.509Z,97001.89
2023-03-01T13:15:53.505Z,97005.55
2023-03-01T13:18:23.230Z,97006.61
2023-03-01T13:21:02.642Z,97006.11
2023-03-01T13:23:39.481Z,97007.80
2023-03-01T13:26:17.910Z,97006.52
2023-03-01T13:28:46.123Z,97005.65
2023-03-01T13:31:17.102Z,97000.20
2023-03-01T13:33:48.103Z,96998.95
2023-03-01T13:36:35.642Z,97000.08
2023-03-01T13:39:33.447Z,97001.63
2023-03-01T13:42:01.773Z,96993.54
2023-03-01T13:44:40.008Z,96994.42
2023-03-01T13:47:08.229Z,96989.99
2023-03-01T13:50:05.758Z,96985.70
2023-03-01T13:53:03.092Z,96977.29
2023-03-01T13:55:36.016Z,96972.99
2023-03-01T13:58:16.336Z,96969.05
2023-03-01T14:00:44.397Z,96970.73
2023-03-01T14:03:18.524Z,96970.19
2023-03-01T14:06:14.529Z,96965.62
2023-03-01T14:08:46.185Z,96964.52
2023-03-01T14:11:37.516Z,96965.25
2023-03-01T14:14:27.598Z,96966.34
2023-03-01T14:17:01.830Z,96962.33
2023-03-01T14:19:34.116Z,96962.38
2023-03-01T14:22:13.845Z,96958.79
2023-03-01T14:24:50.411Z,96957.35
2023-03-01T14:27:19.344Z,96954.79
2023-03-01T14:30:02.853Z,96954.30
2023-03-01T14:32:33.583Z,96951.04
2023-03-01T14:35:01.713Z,96947.66
2023-03-01T14:37:33.055Z,96947.61
2023-03-01T14:40:03.544Z,96946.25
2023-03-01T14:42:37.806Z,96945.98
2023-03-01T14:45:08.834Z,96948.73
2023-03-01T14:47:39.456Z,96955.19
2023-03-01T14:50:33.119Z,96953.04
2023-03-01T14:53:04.848Z,96955.09
2023-03-01T14:55:37.327Z,96957.66
2023-03-01T14:58:07.628Z,96954.05
2023-03-01T15:00:37.186Z,96952.33
2023-03-01T15:03:34.222Z,96950.61
2023-03-01T15:06:03.468Z,96948.42
2023-03-01T15:08:35.644Z,96944.74
2023-03-01T15:11:23.772Z,96946.29
2023-03-01T15:13:53.346Z,96943.76
2023-03-01T15:16:26.745Z,96941.68
2023-03-01T15:19:04.636Z,96944.88
2023-03-01T15:21:35.242Z,96946.08
2023-03-01T15:24:29.655Z,96947.27
2023-03-01T15:27:07.990Z,96948.08
2023-03-01T15:29:41.986Z,96948.19
2023-03-01T15:32:41.023Z,96947.96
2023-03-01T15:35:40.602Z,96948.15
2023-03-01T15:38:29.525Z,96946.73
2023-03-01T15:40:59.274Z,96941.87
2023-03-01T15:43:46.732Z,96941.02
2023-03-01T15:46:23.070Z,96935.44
2023-03-01T15:48:55.726Z,96933.48
2023-03-01T15:51:33.144Z,96928.22
2023-03-01T15:54:05.317Z,96930.71
2023-03-01T15:56:34.410Z,96935.34
2023-03-01T15:59:04.093Z,96936.59
2023-03-01T16:01:35.812Z,96942.75
2023-03-01T16:04:04.016Z,96940.80
2023-03-01T16:06:32.343Z,96943.98
2023-03-01T16:09:00.679Z,96949.14
2023-03-01T16:11:28.895Z,96953.77
2023-03-01T16:13:57.111Z,96952.60
2023-03-01T16:16:25.514Z,96956.60
2023-03-01T16:18:55.483Z,96955.45
2023-03-01T16:21:25.748Z,96953.55
2023-03-01T16:23:54.056Z,96961.86
2023-03-01T16:26:22.287Z,96963.36
2023-03-01T16:28:50.424Z,96960.85
2023-03-01T16:31:20.821Z,96962.22
2023-03-01T16:33:51.060Z,96967.27
2023-03-01T16:36:24.515Z,96968.67
2023-03-01T16:38:53.378Z,96972.88
2023-03-01T16:41:23.885Z,96971.44
2023-03-01T16:43:52.639Z,96966.90
2023-03-01T16:46:26.583Z,96968.33
2023-03-01T16:48:55.910Z,96969.07
2023-03-01T16:51:25.182Z,96968.42
2023-03-01T16:53:53.725Z,96968.50
2023-03-01T16:56:21.842Z,96968.39
2023-03-01T16:58:50.034Z,96963.68
2023-03-01T17:01:20.794Z,96962.92
2023-03-01T17:03:50.396Z,96964.37
2023-03-01T17:06:21.630Z,96967.95
2023-03-01T17:08:49.672Z,96974.11
2023-03-01T17:11:20.564Z,96977.19
2023-03-01T17:13:49.235Z,96983.27
2023-03-01T17:16:20.353Z,96978.20
2023-03-01T17:18:49.215Z,96977.17
2023-03-01T17:21:17.555Z,96975.80
2023-03-01T17:23:50.379Z,96974.39
2023-03-01T17:26:18.525Z,96968.13
2023-03-01T17:28:52.530Z,96967.05
2023-03-01T17:31:20.760Z,96960.39
2023-03-01T17:33:50.124Z,96958.71
2023-03-01T17:36:19.481Z,96965.54
2023-03-01T17:38:47.624Z,96967.05
2023-03-01T17:41:18.599Z,96969.69
2023-03-01T17:43:46.760Z,96969.23
2023-03-01T17:46:14.834Z,96972.65
2023-03-01T17:48:42.876Z,96976.35
2023-03-01T17:51:12.074Z,96976.02
2023-03-01T17:53:40.347Z,96976.05
2023-03-01T17:56:08.865Z,96973.86
2023-03-01T17:58:38.623Z,96974.04
2023-03-01T18:01:14.105Z,96976.04
2023-03-01T18:03:46.603Z,96974.66
2023-03-01T18:06:22.573Z,96970.46
2023-03-01T18:08:52.327Z,96968.96
2023-03-01T18:11:22.841Z,96972.11
2023-03-01T18:13:51.873Z,96974.09
2023-03-01T18:16:22.231Z,96966.13
2023-03-01T18:18:55.647Z,96965.83
2023-03-01T18:21:24.496Z,96963.29
2023-03-01T18:23:53.100Z,96963.26
2023-03-01T18:26:22.667Z,96963.69
2023-03-01T18:28:52.215Z,96961.42
2023-03-01T18:31:22.771Z,96962.49
2023-03-01T18:33:55.323Z,96963.88
2023-03-01T18:36:29.135Z,96960.84
2023-03-01T18:38:57.875Z,96962.60
2023-03-01T18:41:31.016Z,96958.98
2023-03-01T18:43:59.636Z,96954.23
2023-03-01T18:46:27.822Z,96952.96
2023-03-01T18:48:56.203Z,96959.10
2023-03-01T18:51:27.013Z,96961.00
2023-03-01T18:53:56.373Z,96962.23
2023-03-01T18:56:25.401Z,96960.89
2023-03-01T18:58:53.541Z,96958.55
2023-03-01T19:01:24.341Z,96953.20
2023-03-01T19:03:53.068Z,96950.13
2023-03-01T19:06:21.225Z,96943.19
2023-03-01T19:08:50.386Z,96939.88
2023-03-01T19:11:18.442Z,96939.77
2023-03-01T19:13:47.407Z,96935.16
2023-03-01T19:16:24.522Z,96934.29
2023-03-01T19:18:59.698Z,96933.85
2023-03-01T19:21:30.140Z,96930.39
2023-03-01T19:23:59.790Z,96929.60
2023-03-01T19:26:28.903Z,96931.09
2023-03-01T19:28:57.448Z,96933.65
2023-03-01T19:31:31.005Z,96930.92
2023-03-01T19:34:11.045Z,96932.92
2023-03-01T19:36:43.889Z,96933.15
2023-03-01T19:39:14.065Z,96936.30
2023-03-01T19:41:43.725Z,96935.48
2023-03-01T19:44:12.116Z,96937.07
2023-03-01T19:46:40.627Z,96944.97
2023-03-01T19:49:08.973Z,96942.85
2023-03-01T19:51:39.321Z,96944.95
2023-03-01T19:54:09.783Z,96943.45
2023-03-01T19:56:38.921Z,96946.50
2023-03-01T19:59:07.491Z,96942.79
2023-03-01T20:01:35.610Z,96948.71
2023-03-01T20:04:04.362Z,96947.90
2023-03-01T20:06:32.832Z,96943.10
2023-03-01T20:09:09.244Z,96942.84
2023-03-01T20:11:47.225Z,96940.52
2023-03-01T20:14:15.276Z,96941.80
2023-03-01T20:16:43.303Z,96942.02
2023-03-01T20:19:11.283Z,96945.39
2023-03-01T20:21:39.343Z,96945.09
2023-03-01T20:24:07.759Z,96947.27
2023-03-01T20:26:37.334Z,96948.60
2023-03-01T20:29:07.613Z,96945.48
2023-03-01T20:31:36.756Z,96943.54
2023-03-01T20:34:04.827Z,96939.75
2023-03-01T20:36:34.268Z,96944.70
2023-03-01T20:39:02.820Z,96942.12
2023-03-01T20:41:30.834Z,96939.85
2023-03-01T20:44:00.409Z,96936.66
2023-03-01T20:46:32.899Z,96933.38
2023-03-01T20:49:01.558Z,96933.48
2023-03-01T20:51:30.052Z,96932.34
2023-03-01T20:53:58.033Z,96938.05
2023-03-01T20:56:27.255Z,96939.54
2023-03-01T20:59:09.682Z,96942.77
2023-03-01T21:01:39.517Z,96936.84
2023-03-01T21:04:07.722Z,96935.49
2023-03-01T21:06:36.516Z,96931.68
2023-03-01T21:09:05.262Z,96932.94
2023-03-01T21:11:33.635Z,96931.86
2023-03-01T21:14:02.502Z,96932.04
2023-03-01T21:16:30.873Z,96938.09
2023-03-01T21:19:01.771Z,96936.45
2023-03-01T21:21:29.748Z,96931.97
2023-03-01T21:23:57.723Z,96929.31
2023-03-01T21:26:27.493Z,96931.90
2023-03-01T21:29:03.505Z,96936.16
2023-03-01T21:31:35.045Z,96938.30
2023-03-01T21:34:06.074Z,96937.14
2023-03-01T21:36:35.803Z,96936.35
2023-03-01T21:39:05.654Z,96933.60
2023-03-01T21:41:36.914Z,96934.98
2023-03-01T21:44:07.265Z,96930.54
2023-03-01T21:46:38.064Z,96933.34
2023-03-01T21:49:07.406Z,96935.87
2023-03-01T21:51:36.629Z,96930.39
2023-03-01T21:54:05.974Z,96926.60
2023-03-01T21:56:39.075Z,96927.60
2023-03-01T21:59:11.156Z,96926.98
2023-03-01T22:01:39.356Z,96926.48
2023-03-01T22:04:07.455Z,96926.46
2023-03-01T22:06:41.168Z,96921.86
2023-03-01T22:09:14.141Z,96923.95
2023-03-01T22:11:46.203Z,96925.40
2023-03-01T22:14:14.971Z,96927.92
2023-03-01T22:16:45.839Z,96927.80
2023-03-01T22:19:16.016Z,96928.20
2023-03-01T22:21:47.351Z,96922.77
2023-03-01T22:24:17.909Z,96920.29
2023-03-01T22:26:48.037Z,96917.59
2023-03-01T22:29:19.850Z,96921.40
2023-03-01T22:31:48.425Z,96923.70
2023-03-01T22:34:17.332Z,96918.90
2023-03-01T22:36:47.040Z,96915.69
2023-03-01T22:39:17.535Z,96915.90
2023-03-01T22:41:47.408Z,96909.41
2023-03-01T22:44:18.358Z,96909.77
2023-03-01T22:46:47.031Z,96910.84
2023-03-01T22:49:15.761Z,96912.08
2023-03-01T22:51:47.602Z,96910.42
2023-03-01T22:54:16.793Z,96905.46
2023-03-01T22:56:45.334Z,96904.33
2023-03-01T22:59:15.495Z,96908.45
2023-03-01T23:01:48.139Z,96904.55
2023-03-01T23:04:17.654Z,96901.33
2023-03-01T23:06:56.005Z,96907.97
2023-03-01T23:09:28.422Z,96911.20
2023-03-01T23:11:59.093Z,96909.35
2023-03-01T23:14:30.592Z,96906.82
2023-03-01T23:17:00.769Z,96907.86
2023-03-01T23:19:30.701Z,96908.09
2023-03-01T23:21:58.736Z,96906.43
2023-03-01T23:24:31.817Z,96903.23
2023-03-01T23:27:02.408Z,96907.73
2023-03-01T23:29:31.900Z,96908.13
2023-03-01T23:32:00.636Z,96905.09
2023-03-01T23:34:28.712Z,96905.45
2023-03-01T23:36:58.200Z,96906.22
2023-03-01T23:39:27.651Z,96910.64
2023-03-01T23:41:56.844Z,96909.07
2023-03-01T23:44:24.829Z,96913.15
2023-03-01T23:46:53.160Z,96912.45
2023-03-01T23:49:23.332Z,96912.96
2023-03-01T23:51:51.643Z,96909.04
2023-03-01T23:54:22.227Z,96904.48
2023-03-01T23:56:50.666Z,96906.83
2023-03-01T23:59:22.070Z,96906.02
